Weather History for Rickenbacker, OH

Change the Weather History Date:

Wednesday, March 6, 2013

  Actual Average Record
Temperature  
Mean Temperature 36 °F -  
Max Temperature 39 °F 44 °F 70 °F (2009)
Min Temperature 32 °F 27 °F 17 °F (2007)
Degree Days  
Heating Degree Days 30    
Moisture  
Dew Point 30 °F    
Average Humidity 81    
Maximum Humidity 92    
Minimum Humidity 71    
Precipitation  
Precipitation 0.00 in - - ()
Sea Level Pressure  
Sea Level Pressure 29.92 in    
Wind  
Wind Speed 10 mph (NNW)    
Max Wind Speed 16 mph    
Max Gust Speed 20 mph    
Visibility 8 miles    
Events Snow    
Averages and records for this station are not official NWS values.
T = Trace of Precipitation, MM = Missing Value Source: NWS Daily Summary

Daily Weather History Graph

Daily Weather History Graph

Search for Another Location

Airport:

Trip Planner

Search our weather history database for the weather conditions in past years. The results will help you decide how hot, cold, wet, or windy it might be!

Date:

Astronomy

Mar. 06, 2013 Rise Set
Actual Time 6:56 AM EST 6:29 PM EST
Civil Twilight 6:29 AM EST 6:56 PM EST
Nautical Twilight 5:58 AM EST 7:27 PM EST
Astronomical Twilight 5:27 AM EST 7:59 PM EST
Moon 3:04 AM EST (3/6) 1:10 PM EST (3/6)
Length of Visible Light 12h 26m
Length of Day
11h 32m
Waning Crescent, 30% of the Moon is Illuminated
Mar 6
Waning Crescent
Mar 11
New
Mar 19
First Quarter
Mar 27
Full
Apr 3
Last Quarter

Hourly Weather History & Observations

Time (EST) Temp. Windchill Dew Point Humidity Pressure Visibility Wind Dir Wind Speed Gust Speed Precip Events Conditions
12:15 AM 32.4 °F 23.5 °F 30.2 °F 92% 29.53 in 1.2 mi North 11.5 mph - N/A Snow Snow
12:35 AM 32.2 °F 25.8 °F 30.0 °F 92% 29.53 in 1.0 mi North 6.9 mph - N/A Snow Snow
12:55 AM 32.2 °F 26.7 °F 30.0 °F 92% 29.53 in 1.5 mi NNW 5.8 mph - N/A Snow Light Snow
1:15 AM 32.0 °F 26.4 °F 30.0 °F 92% 29.54 in 1.2 mi NNW 5.8 mph - N/A Snow Light Snow
1:35 AM 32.0 °F 25.6 °F 29.8 °F 92% 29.55 in 1.2 mi North 6.9 mph - N/A Snow Light Snow
1:55 AM 32.0 °F 25.6 °F 29.7 °F 91% 29.55 in 1.5 mi NNW 6.9 mph - N/A Snow Light Snow
2:15 AM 32.0 °F 24.8 °F 29.7 °F 91% 29.55 in 1.2 mi North 8.1 mph - N/A Snow Light Snow
2:35 AM 32.0 °F 24.2 °F 29.7 °F 91% 29.56 in 2.0 mi NNW 9.2 mph - N/A Snow Light Snow
2:55 AM 32.0 °F 23.0 °F 29.7 °F 91% 29.56 in 3.0 mi North 11.5 mph - N/A Snow Light Snow
3:15 AM 32.0 °F 22.5 °F 29.7 °F 91% 29.56 in 3.0 mi NNW 12.7 mph - N/A Snow Light Snow
3:35 AM 32.0 °F 23.6 °F 29.7 °F 91% 29.57 in 2.5 mi NNW 10.4 mph - N/A Snow Light Snow
3:55 AM 32.0 °F 23.0 °F 29.5 °F 90% 29.58 in 3.0 mi NNW 11.5 mph 17.3 mph N/A Snow Light Snow
4:15 AM 32.0 °F 22.1 °F 29.7 °F 91% 29.59 in 3.0 mi NNW 13.8 mph 19.6 mph N/A Snow Light Snow
4:35 AM 32.0 °F 21.6 °F 29.7 °F 91% 29.61 in 4.0 mi NNW 15.0 mph - N/A Snow Light Snow
4:55 AM 32.0 °F 21.6 °F 29.5 °F 90% 29.62 in 5.0 mi North 15.0 mph - N/A   Overcast
5:15 AM 32.2 °F 22.3 °F 29.7 °F 90% 29.63 in 5.0 mi North 13.8 mph 19.6 mph N/A Snow Light Snow
5:35 AM 32.5 °F 22.7 °F 29.8 °F 90% 29.66 in 5.0 mi North 13.8 mph - N/A Snow Light Snow
5:55 AM 32.9 °F 22.4 °F 30.0 °F 89% 29.68 in 10.0 mi North 16.1 mph 19.6 mph N/A   Overcast
6:15 AM 33.3 °F 23.7 °F 30.2 °F 89% 29.70 in 10.0 mi North 13.8 mph 19.6 mph N/A   Overcast
6:35 AM 33.8 °F 23.9 °F 30.4 °F 87% 29.72 in 10.0 mi North 15.0 mph - N/A   Overcast
6:55 AM 34.5 °F 25.7 °F 30.6 °F 85% 29.74 in 10.0 mi North 12.7 mph - N/A   Overcast
7:15 AM 34.7 °F 26.4 °F 30.7 °F 85% 29.76 in 10.0 mi North 11.5 mph - N/A   Overcast
7:35 AM 34.9 °F 26.6 °F 30.7 °F 85% 29.78 in 10.0 mi North 11.5 mph - N/A   Overcast
7:55 AM 35.1 °F 27.4 °F 30.9 °F 85% 29.81 in 10.0 mi North 10.4 mph - N/A   Overcast
8:15 AM 35.1 °F 28.6 °F 30.9 °F 85% 29.83 in 10.0 mi North 8.1 mph - N/A   Overcast
8:35 AM 35.2 °F 28.1 °F 30.9 °F 84% 29.86 in 10.0 mi North 9.2 mph - N/A   Overcast
8:55 AM 35.6 °F 29.2 °F 31.1 °F 84% 29.88 in 10.0 mi NNE 8.1 mph - N/A   Overcast
9:15 AM 35.6 °F 29.9 °F 31.1 °F 84% 29.90 in 10.0 mi North 6.9 mph - N/A   Overcast
9:35 AM 35.4 °F 27.8 °F 30.9 °F 84% 29.92 in 7.0 mi North 10.4 mph - N/A   Overcast
9:55 AM 35.8 °F 30.1 °F 30.9 °F 82% 29.93 in 7.0 mi North 6.9 mph - N/A   Overcast
10:15 AM 36.5 °F 31.0 °F 31.1 °F 81% 29.94 in 7.0 mi North 6.9 mph - N/A   Overcast
10:35 AM 36.5 °F 29.2 °F 30.9 °F 80% 29.95 in 10.0 mi NNW 10.4 mph - N/A   Overcast
10:55 AM 36.7 °F 29.9 °F 30.7 °F 79% 29.97 in 10.0 mi NNW 9.2 mph - N/A   Overcast
11:15 AM 37.4 °F 31.4 °F 30.9 °F 77% 29.98 in 10.0 mi NNW 8.1 mph - N/A   Overcast
11:35 AM 37.8 °F 31.8 °F 31.1 °F 77% 29.99 in 10.0 mi NNW 8.1 mph - N/A   Overcast
11:55 AM 38.1 °F 31.7 °F 31.3 °F 76% 30.01 in 10.0 mi NNW 9.2 mph - N/A   Overcast
12:15 PM 38.3 °F 31.4 °F 31.1 °F 75% 30.02 in 10.0 mi NNW 10.4 mph - N/A   Overcast
12:35 PM 38.5 °F 31.6 °F 30.9 °F 74% 30.02 in 10.0 mi NNW 10.4 mph - N/A   Overcast
12:55 PM 38.8 °F 32.1 °F 30.6 °F 72% 30.03 in 10.0 mi NNW 10.4 mph - N/A   Overcast
1:15 PM 38.8 °F 32.6 °F 30.7 °F 73% 30.03 in 10.0 mi NNW 9.2 mph - N/A   Overcast
1:35 PM 38.8 °F 33.2 °F 30.9 °F 73% 30.03 in 10.0 mi NNW 8.1 mph - N/A   Overcast
1:55 PM 39.0 °F 31.8 °F 30.7 °F 72% 30.04 in 10.0 mi NNW 11.5 mph - N/A   Overcast
2:15 PM 39.2 °F 32.5 °F 30.6 °F 71% 30.05 in 10.0 mi NW 10.4 mph - N/A   Overcast
2:35 PM 39.2 °F 33.0 °F 30.7 °F 72% 30.06 in 10.0 mi NW 9.2 mph - N/A   Overcast
2:55 PM 39.2 °F 32.5 °F 30.7 °F 72% 30.07 in 10.0 mi NW 10.4 mph - N/A   Overcast
3:15 PM 38.8 °F 32.1 °F 30.4 °F 72% 30.08 in 10.0 mi NW 10.4 mph - N/A   Overcast
3:35 PM 38.5 °F 31.6 °F 30.2 °F 72% 30.08 in 10.0 mi NW 10.4 mph - N/A   Overcast
3:55 PM 38.3 °F 31.9 °F 30.2 °F 73% 30.08 in 10.0 mi NW 9.2 mph - N/A   Overcast
4:15 PM 38.3 °F 31.9 °F 30.2 °F 73% 30.08 in 10.0 mi NW 9.2 mph - N/A   Overcast
4:35 PM 38.3 °F 32.5 °F 30.2 °F 73% 30.10 in 10.0 mi NW 8.1 mph - N/A   Overcast
4:55 PM 37.8 °F 31.8 °F 30.2 °F 74% 30.10 in 10.0 mi NW 8.1 mph - N/A   Overcast
5:15 PM 37.8 °F 31.8 °F 30.0 °F 74% 30.11 in 10.0 mi NW 8.1 mph - N/A   Overcast
5:35 PM 37.6 °F 31.6 °F 29.8 °F 74% 30.11 in 10.0 mi NW 8.1 mph - N/A   Overcast
5:55 PM 37.4 °F 32.8 °F 29.7 °F 74% 30.12 in 10.0 mi NW 5.8 mph - N/A   Overcast
6:15 PM 37.0 °F 31.6 °F 29.8 °F 75% 30.13 in 10.0 mi WNW 6.9 mph - N/A   Overcast
6:35 PM 36.9 °F 30.7 °F 29.3 °F 74% 30.14 in 10.0 mi WNW 8.1 mph - N/A   Overcast
6:55 PM 36.7 °F 30.5 °F 29.3 °F 75% 30.15 in 10.0 mi NW 8.1 mph - N/A   Overcast
7:15 PM 36.5 °F 31.0 °F 29.3 °F 75% 30.17 in 10.0 mi WNW 6.9 mph - N/A   Overcast
7:35 PM 36.5 °F 30.3 °F 29.5 °F 76% 30.17 in 10.0 mi WNW 8.1 mph - N/A   Overcast
7:55 PM 36.1 °F 27.7 °F 29.1 °F 76% 30.18 in 10.0 mi WNW 12.7 mph 17.3 mph N/A   Overcast
8:15 PM 35.8 °F 28.8 °F 28.6 °F 75% 30.18 in 10.0 mi WNW 9.2 mph 19.6 mph N/A   Overcast
8:35 PM 35.2 °F 27.6 °F 28.2 °F 76% 30.18 in 10.0 mi WNW 10.4 mph - N/A   Overcast
8:55 PM 35.1 °F 27.9 °F 28.0 °F 76% 30.19 in 10.0 mi WNW 9.2 mph - N/A   Overcast
9:35 PM 34.9 °F 27.1 °F 27.9 °F 76% 30.19 in 10.0 mi WNW 10.4 mph - N/A   Overcast
9:55 PM 34.7 °F 28.1 °F 27.7 °F 76% 30.19 in 10.0 mi WNW 8.1 mph - N/A   Overcast
10:15 PM 34.7 °F 26.4 °F 27.5 °F 75% 30.20 in 10.0 mi WNW 11.5 mph 16.1 mph N/A   Overcast
10:35 PM 34.5 °F 27.9 °F 27.3 °F 75% 30.20 in 10.0 mi WNW 8.1 mph - N/A   Overcast
10:55 PM 34.3 °F 25.9 °F 27.1 °F 75% 30.20 in 10.0 mi WNW 11.5 mph - N/A   Overcast
11:15 PM 34.3 °F 26.5 °F 27.0 °F 74% 30.21 in 10.0 mi NW 10.4 mph - N/A   Overcast
11:35 PM 34.2 °F 26.8 °F 27.1 °F 75% 30.20 in 10.0 mi WNW 9.2 mph - N/A   Overcast
11:55 PM 34.0 °F 28.0 °F 27.1 °F 76% 30.20 in 10.0 mi WNW 6.9 mph - N/A   Overcast